sensor_id;sensor_type;location;lat;lon;timestamp;temperature;humidity
25914;DHT22;13718;50.922;5.346;2023-12-20T00:01:31;7.40;99.90
25914;DHT22;13718;50.922;5.346;2023-12-20T00:03:57;7.40;99.90
25914;DHT22;13718;50.922;5.346;2023-12-20T00:06:22;7.30;99.90
25914;DHT22;13718;50.922;5.346;2023-12-20T00:08:48;7.30;99.90
25914;DHT22;13718;50.922;5.346;2023-12-20T00:11:13;7.20;99.90
25914;DHT22;13718;50.922;5.346;2023-12-20T00:13:39;7.20;99.90
25914;DHT22;13718;50.922;5.346;2023-12-20T00:16:04;7.10;99.90
25914;DHT22;13718;50.922;5.346;2023-12-20T00:18:30;7.10;99.90
25914;DHT22;13718;50.922;5.346;2023-12-20T00:20:55;7.10;99.90
25914;DHT22;13718;50.922;5.346;2023-12-20T00:23:21;7.10;99.90
25914;DHT22;13718;50.922;5.346;2023-12-20T00:25:48;7.20;99.90
25914;DHT22;13718;50.922;5.346;2023-12-20T00:28:14;7.20;99.90
25914;DHT22;13718;50.922;5.346;2023-12-20T00:30:39;7.30;99.90
25914;DHT22;13718;50.922;5.346;2023-12-20T00:33:04;7.20;99.90
25914;DHT22;13718;50.922;5.346;2023-12-20T00:35:30;7.10;99.90
25914;DHT22;13718;50.922;5.346;2023-12-20T00:37:55;7.10;99.90
25914;DHT22;13718;50.922;5.346;2023-12-20T00:40:21;6.90;99.90
25914;DHT22;13718;50.922;5.346;2023-12-20T00:42:47;6.80;99.90
25914;DHT22;13718;50.922;5.346;2023-12-20T00:45:13;6.80;99.90
25914;DHT22;13718;50.922;5.346;2023-12-20T00:47:39;6.80;99.90
25914;DHT22;13718;50.922;5.346;2023-12-20T00:50:05;6.80;99.90
25914;DHT22;13718;50.922;5.346;2023-12-20T00:52:31;6.80;99.90
25914;DHT22;13718;50.922;5.346;2023-12-20T00:54:56;6.90;99.90
25914;DHT22;13718;50.922;5.346;2023-12-20T00:57:22;6.90;99.90
25914;DHT22;13718;50.922;5.346;2023-12-20T00:59:47;6.90;99.90
25914;DHT22;13718;50.922;5.346;2023-12-20T01:02:13;6.80;99.90
25914;DHT22;13718;50.922;5.346;2023-12-20T01:04:38;6.70;99.90
25914;DHT22;13718;50.922;5.346;2023-12-20T01:07:04;6.70;99.90
25914;DHT22;13718;50.922;5.346;2023-12-20T01:09:29;6.70;99.90
25914;DHT22;13718;50.922;5.346;2023-12-20T01:11:55;6.80;99.90
25914;DHT22;13718;50.922;5.346;2023-12-20T01:14:20;6.80;99.90
25914;DHT22;13718;50.922;5.346;2023-12-20T01:16:46;6.80;99.90
25914;DHT22;13718;50.922;5.346;2023-12-20T01:19:12;6.70;99.90
25914;DHT22;13718;50.922;5.346;2023-12-20T01:21:38;6.70;99.90
25914;DHT22;13718;50.922;5.346;2023-12-20T01:24:04;6.90;99.90
25914;DHT22;13718;50.922;5.346;2023-12-20T01:26:29;6.90;99.90
25914;DHT22;13718;50.922;5.346;2023-12-20T01:28:55;6.90;99.90
25914;DHT22;13718;50.922;5.346;2023-12-20T01:31:20;7.00;99.90
25914;DHT22;13718;50.922;5.346;2023-12-20T01:33:46;7.00;99.90
25914;DHT22;13718;50.922;5.346;2023-12-20T01:36:11;6.90;99.90
25914;DHT22;13718;50.922;5.346;2023-12-20T01:38:37;6.80;99.90
25914;DHT22;13718;50.922;5.346;2023-12-20T01:41:02;6.90;99.90
25914;DHT22;13718;50.922;5.346;2023-12-20T01:43:28;6.90;99.90
25914;DHT22;13718;50.922;5.346;2023-12-20T01:45:54;6.70;99.90
25914;DHT22;13718;50.922;5.346;2023-12-20T01:48:21;6.60;99.90
25914;DHT22;13718;50.922;5.346;2023-12-20T01:50:46;6.40;99.90
25914;DHT22;13718;50.922;5.346;2023-12-20T01:53:12;6.40;99.90
25914;DHT22;13718;50.922;5.346;2023-12-20T01:55:39;6.30;99.90
25914;DHT22;13718;50.922;5.346;2023-12-20T01:58:05;6.30;99.90
25914;DHT22;13718;50.922;5.346;2023-12-20T02:00:31;6.30;99.90
25914;DHT22;13718;50.922;5.346;2023-12-20T02:02:56;6.20;99.90
25914;DHT22;13718;50.922;5.346;2023-12-20T02:05:24;6.30;99.90
25914;DHT22;13718;50.922;5.346;2023-12-20T02:07:50;6.20;99.90
25914;DHT22;13718;50.922;5.346;2023-12-20T02:10:16;6.30;99.90
25914;DHT22;13718;50.922;5.346;2023-12-20T02:12:41;6.20;99.90
25914;DHT22;13718;50.922;5.346;2023-12-20T02:15:07;6.20;99.90
25914;DHT22;13718;50.922;5.346;2023-12-20T02:17:32;6.10;99.90
25914;DHT22;13718;50.922;5.346;2023-12-20T02:19:58;6.10;99.90
25914;DHT22;13718;50.922;5.346;2023-12-20T02:22:24;6.00;99.90
25914;DHT22;13718;50.922;5.346;2023-12-20T02:24:49;6.10;99.90
25914;DHT22;13718;50.922;5.346;2023-12-20T02:27:15;6.00;99.90
25914;DHT22;13718;50.922;5.346;2023-12-20T02:29:41;5.90;99.90
25914;DHT22;13718;50.922;5.346;2023-12-20T02:32:07;6.10;99.90
25914;DHT22;13718;50.922;5.346;2023-12-20T02:34:32;6.10;99.90
25914;DHT22;13718;50.922;5.346;2023-12-20T02:36:58;6.10;99.90
25914;DHT22;13718;50.922;5.346;2023-12-20T02:39:23;5.90;99.90
25914;DHT22;13718;50.922;5.346;2023-12-20T02:41:48;5.80;99.90
25914;DHT22;13718;50.922;5.346;2023-12-20T02:44:14;5.80;99.90
25914;DHT22;13718;50.922;5.346;2023-12-20T02:46:39;5.70;99.90
25914;DHT22;13718;50.922;5.346;2023-12-20T02:49:05;5.70;99.90
25914;DHT22;13718;50.922;5.346;2023-12-20T02:51:31;5.70;99.90
25914;DHT22;13718;50.922;5.346;2023-12-20T02:53:56;5.80;99.90
25914;DHT22;13718;50.922;5.346;2023-12-20T02:56:22;5.80;99.90
25914;DHT22;13718;50.922;5.346;2023-12-20T02:58:47;5.80;99.90
25914;DHT22;13718;50.922;5.346;2023-12-20T03:01:13;5.80;99.90
25914;DHT22;13718;50.922;5.346;2023-12-20T03:03:39;5.80;99.90
25914;DHT22;13718;50.922;5.346;2023-12-20T03:06:05;5.80;99.90
25914;DHT22;13718;50.922;5.346;2023-12-20T03:08:30;5.80;99.90
25914;DHT22;13718;50.922;5.346;2023-12-20T03:10:56;5.70;99.90
25914;DHT22;13718;50.922;5.346;2023-12-20T03:13:21;5.80;99.90
25914;DHT22;13718;50.922;5.346;2023-12-20T03:15:47;5.80;99.90
25914;DHT22;13718;50.922;5.346;2023-12-20T03:18:12;5.90;99.90
25914;DHT22;13718;50.922;5.346;2023-12-20T03:20:38;6.10;99.90
25914;DHT22;13718;50.922;5.346;2023-12-20T03:23:03;6.10;99.90
25914;DHT22;13718;50.922;5.346;2023-12-20T03:25:29;6.10;99.90
25914;DHT22;13718;50.922;5.346;2023-12-20T03:27:54;6.10;99.90
25914;DHT22;13718;50.922;5.346;2023-12-20T03:30:20;6.30;99.90
25914;DHT22;13718;50.922;5.346;2023-12-20T03:32:45;6.30;99.90
25914;DHT22;13718;50.922;5.346;2023-12-20T03:35:11;6.30;99.90
25914;DHT22;13718;50.922;5.346;2023-12-20T03:37:36;6.30;99.90
25914;DHT22;13718;50.922;5.346;2023-12-20T03:40:02;6.30;99.90
25914;DHT22;13718;50.922;5.346;2023-12-20T03:42:28;6.40;99.90
25914;DHT22;13718;50.922;5.346;2023-12-20T03:44:53;6.40;99.90
25914;DHT22;13718;50.922;5.346;2023-12-20T03:47:19;6.30;99.90
25914;DHT22;13718;50.922;5.346;2023-12-20T03:49:44;6.30;99.90
25914;DHT22;13718;50.922;5.346;2023-12-20T03:52:10;6.30;99.90
25914;DHT22;13718;50.922;5.346;2023-12-20T03:54:35;6.30;99.90
25914;DHT22;13718;50.922;5.346;2023-12-20T03:57:03;6.30;99.90
25914;DHT22;13718;50.922;5.346;2023-12-20T03:59:29;6.30;99.90
25914;DHT22;13718;50.922;5.346;2023-12-20T04:01:55;6.40;99.90
25914;DHT22;13718;50.922;5.346;2023-12-20T04:04:20;6.40;99.90
25914;DHT22;13718;50.922;5.346;2023-12-20T04:06:46;6.50;99.90
25914;DHT22;13718;50.922;5.346;2023-12-20T04:09:11;6.50;99.90
25914;DHT22;13718;50.922;5.346;2023-12-20T04:11:37;6.60;99.90
25914;DHT22;13718;50.922;5.346;2023-12-20T04:14:02;6.60;99.90
25914;DHT22;13718;50.922;5.346;2023-12-20T04:16:30;6.50;99.90
25914;DHT22;13718;50.922;5.346;2023-12-20T04:18:55;6.50;99.90
25914;DHT22;13718;50.922;5.346;2023-12-20T04:21:21;6.60;99.90
25914;DHT22;13718;50.922;5.346;2023-12-20T04:23:46;6.70;99.90
25914;DHT22;13718;50.922;5.346;2023-12-20T04:26:12;6.70;99.90
25914;DHT22;13718;50.922;5.346;2023-12-20T04:28:37;6.80;99.90
25914;DHT22;13718;50.922;5.346;2023-12-20T04:31:03;6.70;99.90
25914;DHT22;13718;50.922;5.346;2023-12-20T04:33:28;6.70;99.90
25914;DHT22;13718;50.922;5.346;2023-12-20T04:35:54;6.80;99.90
25914;DHT22;13718;50.922;5.346;2023-12-20T04:38:19;6.80;99.90
25914;DHT22;13718;50.922;5.346;2023-12-20T04:40:45;6.80;99.90
25914;DHT22;13718;50.922;5.346;2023-12-20T04:43:10;6.90;99.90
25914;DHT22;13718;50.922;5.346;2023-12-20T04:45:36;6.90;99.90
25914;DHT22;13718;50.922;5.346;2023-12-20T04:48:02;6.90;99.90
25914;DHT22;13718;50.922;5.346;2023-12-20T04:50:27;6.90;99.90
25914;DHT22;13718;50.922;5.346;2023-12-20T04:52:53;7.00;99.90
25914;DHT22;13718;50.922;5.346;2023-12-20T04:55:18;7.00;99.90
25914;DHT22;13718;50.922;5.346;2023-12-20T04:57:44;6.90;99.90
25914;DHT22;13718;50.922;5.346;2023-12-20T05:00:09;6.90;99.90
25914;DHT22;13718;50.922;5.346;2023-12-20T05:02:35;6.90;99.90
25914;DHT22;13718;50.922;5.346;2023-12-20T05:05:01;6.80;99.90
25914;DHT22;13718;50.922;5.346;2023-12-20T05:07:27;6.90;99.90
25914;DHT22;13718;50.922;5.346;2023-12-20T05:09:52;6.90;99.90
25914;DHT22;13718;50.922;5.346;2023-12-20T05:12:18;7.00;99.90
25914;DHT22;13718;50.922;5.346;2023-12-20T05:14:44;7.10;99.90
25914;DHT22;13718;50.922;5.346;2023-12-20T05:17:09;7.10;99.90
25914;DHT22;13718;50.922;5.346;2023-12-20T05:19:35;7.00;99.90
25914;DHT22;13718;50.922;5.346;2023-12-20T05:22:01;7.00;99.90
25914;DHT22;13718;50.922;5.346;2023-12-20T05:24:27;7.00;99.90
25914;DHT22;13718;50.922;5.346;2023-12-20T05:26:52;6.90;99.90
25914;DHT22;13718;50.922;5.346;2023-12-20T05:29:18;7.10;99.90
25914;DHT22;13718;50.922;5.346;2023-12-20T05:31:43;6.90;99.90
25914;DHT22;13718;50.922;5.346;2023-12-20T05:34:09;6.90;99.90
25914;DHT22;13718;50.922;5.346;2023-12-20T05:36:34;6.90;99.90
25914;DHT22;13718;50.922;5.346;2023-12-20T05:39:00;6.90;99.90
25914;DHT22;13718;50.922;5.346;2023-12-20T05:41:25;6.90;99.90
25914;DHT22;13718;50.922;5.346;2023-12-20T05:43:51;7.00;99.90
25914;DHT22;13718;50.922;5.346;2023-12-20T05:46:17;6.70;99.90
25914;DHT22;13718;50.922;5.346;2023-12-20T05:48:42;6.70;99.90
25914;DHT22;13718;50.922;5.346;2023-12-20T05:51:07;6.60;99.90
25914;DHT22;13718;50.922;5.346;2023-12-20T05:53:36;6.40;99.90
25914;DHT22;13718;50.922;5.346;2023-12-20T05:56:01;6.30;99.90
25914;DHT22;13718;50.922;5.346;2023-12-20T05:58:27;6.30;99.90
25914;DHT22;13718;50.922;5.346;2023-12-20T06:00:53;6.20;99.90
25914;DHT22;13718;50.922;5.346;2023-12-20T06:03:18;6.00;99.90
25914;DHT22;13718;50.922;5.346;2023-12-20T06:05:43;6.00;99.90
25914;DHT22;13718;50.922;5.346;2023-12-20T06:08:10;6.00;99.90
25914;DHT22;13718;50.922;5.346;2023-12-20T06:10:35;6.00;99.90
25914;DHT22;13718;50.922;5.346;2023-12-20T06:13:00;6.00;99.90
25914;DHT22;13718;50.922;5.346;2023-12-20T06:15:26;6.00;99.90
25914;DHT22;13718;50.922;5.346;2023-12-20T06:17:51;5.90;99.90
25914;DHT22;13718;50.922;5.346;2023-12-20T06:20:17;5.90;99.90
25914;DHT22;13718;50.922;5.346;2023-12-20T06:22:42;6.00;99.90
25914;DHT22;13718;50.922;5.346;2023-12-20T06:25:08;5.90;99.90
25914;DHT22;13718;50.922;5.346;2023-12-20T06:27:34;5.80;99.90
25914;DHT22;13718;50.922;5.346;2023-12-20T06:29:59;5.80;99.90
25914;DHT22;13718;50.922;5.346;2023-12-20T06:32:25;5.80;99.90
25914;DHT22;13718;50.922;5.346;2023-12-20T06:34:50;5.90;99.90
25914;DHT22;13718;50.922;5.346;2023-12-20T06:37:16;6.20;99.90
25914;DHT22;13718;50.922;5.346;2023-12-20T06:39:41;6.40;99.90
25914;DHT22;13718;50.922;5.346;2023-12-20T06:42:07;6.80;99.90
25914;DHT22;13718;50.922;5.346;2023-12-20T06:44:32;6.80;99.90
25914;DHT22;13718;50.922;5.346;2023-12-20T06:46:58;6.60;99.90
25914;DHT22;13718;50.922;5.346;2023-12-20T06:49:23;6.50;99.90
25914;DHT22;13718;50.922;5.346;2023-12-20T06:51:49;6.50;99.90
25914;DHT22;13718;50.922;5.346;2023-12-20T06:54:14;6.40;99.90
25914;DHT22;13718;50.922;5.346;2023-12-20T06:56:40;6.40;99.90
25914;DHT22;13718;50.922;5.346;2023-12-20T06:59:06;6.50;99.90
25914;DHT22;13718;50.922;5.346;2023-12-20T07:01:32;6.60;99.90
25914;DHT22;13718;50.922;5.346;2023-12-20T07:03:57;6.70;99.90
25914;DHT22;13718;50.922;5.346;2023-12-20T07:06:23;6.70;99.90
25914;DHT22;13718;50.922;5.346;2023-12-20T07:08:49;6.70;99.90
25914;DHT22;13718;50.922;5.346;2023-12-20T07:11:14;6.50;99.90
25914;DHT22;13718;50.922;5.346;2023-12-20T07:13:40;6.40;99.90
25914;DHT22;13718;50.922;5.346;2023-12-20T07:16:05;6.30;99.90
25914;DHT22;13718;50.922;5.346;2023-12-20T07:18:31;6.40;99.90
25914;DHT22;13718;50.922;5.346;2023-12-20T07:20:56;6.40;99.90
25914;DHT22;13718;50.922;5.346;2023-12-20T07:23:22;6.50;99.90
25914;DHT22;13718;50.922;5.346;2023-12-20T07:25:47;6.80;99.90
25914;DHT22;13718;50.922;5.346;2023-12-20T07:28:13;6.60;99.90
25914;DHT22;13718;50.922;5.346;2023-12-20T07:30:38;6.40;99.90
25914;DHT22;13718;50.922;5.346;2023-12-20T07:33:04;6.30;99.90
25914;DHT22;13718;50.922;5.346;2023-12-20T07:35:30;6.20;99.90
25914;DHT22;13718;50.922;5.346;2023-12-20T07:37:55;6.20;99.90
25914;DHT22;13718;50.922;5.346;2023-12-20T07:40:21;6.20;99.90
25914;DHT22;13718;50.922;5.346;2023-12-20T07:42:46;6.20;99.90
25914;DHT22;13718;50.922;5.346;2023-12-20T07:45:12;6.60;99.90
25914;DHT22;13718;50.922;5.346;2023-12-20T07:47:38;6.60;99.90
25914;DHT22;13718;50.922;5.346;2023-12-20T07:50:03;6.70;99.90
25914;DHT22;13718;50.922;5.346;2023-12-20T07:52:29;6.70;99.90
25914;DHT22;13718;50.922;5.346;2023-12-20T07:54:54;6.90;99.90
25914;DHT22;13718;50.922;5.346;2023-12-20T07:57:20;6.90;99.90
25914;DHT22;13718;50.922;5.346;2023-12-20T07:59:46;7.00;99.90
25914;DHT22;13718;50.922;5.346;2023-12-20T08:02:11;6.90;99.90
25914;DHT22;13718;50.922;5.346;2023-12-20T08:04:37;6.90;99.90
25914;DHT22;13718;50.922;5.346;2023-12-20T08:07:03;7.00;99.90
25914;DHT22;13718;50.922;5.346;2023-12-20T08:09:28;7.20;99.90
25914;DHT22;13718;50.922;5.346;2023-12-20T08:11:54;7.10;99.90
25914;DHT22;13718;50.922;5.346;2023-12-20T08:14:19;7.10;99.90
25914;DHT22;13718;50.922;5.346;2023-12-20T08:16:45;7.10;99.90
25914;DHT22;13718;50.922;5.346;2023-12-20T08:19:10;7.00;99.90
25914;DHT22;13718;50.922;5.346;2023-12-20T08:21:36;6.90;99.90
25914;DHT22;13718;50.922;5.346;2023-12-20T08:24:01;6.90;99.90
25914;DHT22;13718;50.922;5.346;2023-12-20T08:26:27;7.00;99.90
25914;DHT22;13718;50.922;5.346;2023-12-20T08:28:52;7.10;99.90
25914;DHT22;13718;50.922;5.346;2023-12-20T08:31:18;7.20;99.90
25914;DHT22;13718;50.922;5.346;2023-12-20T08:33:44;7.30;99.90
25914;DHT22;13718;50.922;5.346;2023-12-20T08:36:10;7.50;99.90
25914;DHT22;13718;50.922;5.346;2023-12-20T08:38:35;7.80;99.90
25914;DHT22;13718;50.922;5.346;2023-12-20T08:41:01;7.80;99.90
25914;DHT22;13718;50.922;5.346;2023-12-20T08:43:28;7.80;99.90
25914;DHT22;13718;50.922;5.346;2023-12-20T08:45:54;8.00;99.90
25914;DHT22;13718;50.922;5.346;2023-12-20T08:48:19;8.00;99.90
25914;DHT22;13718;50.922;5.346;2023-12-20T08:50:45;8.00;99.90
25914;DHT22;13718;50.922;5.346;2023-12-20T08:53:11;8.10;99.90
25914;DHT22;13718;50.922;5.346;2023-12-20T08:55:37;8.00;99.90
25914;DHT22;13718;50.922;5.346;2023-12-20T08:58:02;8.00;99.90
25914;DHT22;13718;50.922;5.346;2023-12-20T09:00:28;7.90;99.90
25914;DHT22;13718;50.922;5.346;2023-12-20T09:02:54;7.90;99.90
25914;DHT22;13718;50.922;5.346;2023-12-20T09:05:20;7.90;99.90
25914;DHT22;13718;50.922;5.346;2023-12-20T09:07:45;8.00;99.90
25914;DHT22;13718;50.922;5.346;2023-12-20T09:10:11;8.00;99.90
25914;DHT22;13718;50.922;5.346;2023-12-20T09:12:36;8.30;99.90
25914;DHT22;13718;50.922;5.346;2023-12-20T09:15:05;8.30;99.90
25914;DHT22;13718;50.922;5.346;2023-12-20T09:17:30;8.30;99.90
25914;DHT22;13718;50.922;5.346;2023-12-20T09:19:56;8.40;99.90
25914;DHT22;13718;50.922;5.346;2023-12-20T09:22:21;8.10;99.90
25914;DHT22;13718;50.922;5.346;2023-12-20T09:24:47;8.00;99.90
25914;DHT22;13718;50.922;5.346;2023-12-20T09:27:13;8.00;99.90
25914;DHT22;13718;50.922;5.346;2023-12-20T09:29:38;8.20;99.90
25914;DHT22;13718;50.922;5.346;2023-12-20T09:32:04;8.10;99.90
25914;DHT22;13718;50.922;5.346;2023-12-20T09:34:29;8.10;99.90
25914;DHT22;13718;50.922;5.346;2023-12-20T09:36:55;8.20;99.90
25914;DHT22;13718;50.922;5.346;2023-12-20T09:39:20;8.50;99.90
25914;DHT22;13718;50.922;5.346;2023-12-20T09:42:02;8.50;99.90
25914;DHT22;13718;50.922;5.346;2023-12-20T09:44:29;8.40;99.90
25914;DHT22;13718;50.922;5.346;2023-12-20T09:46:55;8.30;99.90
25914;DHT22;13718;50.922;5.346;2023-12-20T09:49:21;8.30;99.90
25914;DHT22;13718;50.922;5.346;2023-12-20T09:51:47;8.40;99.90
25914;DHT22;13718;50.922;5.346;2023-12-20T09:54:13;8.40;99.90
25914;DHT22;13718;50.922;5.346;2023-12-20T09:56:39;8.40;99.90
25914;DHT22;13718;50.922;5.346;2023-12-20T09:59:04;8.40;99.90
25914;DHT22;13718;50.922;5.346;2023-12-20T10:01:30;8.40;99.90
25914;DHT22;13718;50.922;5.346;2023-12-20T10:03:56;8.60;99.90
25914;DHT22;13718;50.922;5.346;2023-12-20T10:06:23;8.50;99.90
25914;DHT22;13718;50.922;5.346;2023-12-20T10:08:49;8.50;99.90
25914;DHT22;13718;50.922;5.346;2023-12-20T10:11:14;8.40;99.90
25914;DHT22;13718;50.922;5.346;2023-12-20T10:13:40;8.40;99.90
25914;DHT22;13718;50.922;5.346;2023-12-20T10:16:06;8.40;99.90
25914;DHT22;13718;50.922;5.346;2023-12-20T10:18:35;8.60;99.90
25914;DHT22;13718;50.922;5.346;2023-12-20T10:21:01;8.60;99.90
25914;DHT22;13718;50.922;5.346;2023-12-20T10:23:28;8.50;99.90
25914;DHT22;13718;50.922;5.346;2023-12-20T10:25:57;8.80;99.90
25914;DHT22;13718;50.922;5.346;2023-12-20T10:28:23;8.70;99.90
25914;DHT22;13718;50.922;5.346;2023-12-20T10:30:53;8.60;99.90
25914;DHT22;13718;50.922;5.346;2023-12-20T10:33:25;8.70;99.90
25914;DHT22;13718;50.922;5.346;2023-12-20T10:35:51;8.50;99.90
25914;DHT22;13718;50.922;5.346;2023-12-20T10:38:17;8.50;99.90
25914;DHT22;13718;50.922;5.346;2023-12-20T10:40:42;8.50;99.90
25914;DHT22;13718;50.922;5.346;2023-12-20T10:43:10;8.50;99.90
25914;DHT22;13718;50.922;5.346;2023-12-20T10:45:35;8.70;99.90
25914;DHT22;13718;50.922;5.346;2023-12-20T10:48:02;8.80;99.90
25914;DHT22;13718;50.922;5.346;2023-12-20T10:50:28;8.80;99.90
25914;DHT22;13718;50.922;5.346;2023-12-20T10:52:55;8.80;99.90
25914;DHT22;13718;50.922;5.346;2023-12-20T10:55:24;8.80;99.90
25914;DHT22;13718;50.922;5.346;2023-12-20T10:58:11;8.90;99.90
25914;DHT22;13718;50.922;5.346;2023-12-20T11:00:39;8.80;99.90
25914;DHT22;13718;50.922;5.346;2023-12-20T11:03:08;8.90;99.90
25914;DHT22;13718;50.922;5.346;2023-12-20T11:05:51;9.10;99.90
25914;DHT22;13718;50.922;5.346;2023-12-20T11:08:23;9.20;99.90
25914;DHT22;13718;50.922;5.346;2023-12-20T11:11:12;9.10;99.90
25914;DHT22;13718;50.922;5.346;2023-12-20T11:13:40;9.20;99.90
25914;DHT22;13718;50.922;5.346;2023-12-20T11:16:09;9.10;99.90
25914;DHT22;13718;50.922;5.346;2023-12-20T11:18:35;9.20;99.90
25914;DHT22;13718;50.922;5.346;2023-12-20T11:21:01;9.20;99.90
25914;DHT22;13718;50.922;5.346;2023-12-20T11:23:29;9.20;99.90
25914;DHT22;13718;50.922;5.346;2023-12-20T11:25:56;9.20;99.90
25914;DHT22;13718;50.922;5.346;2023-12-20T11:28:24;9.20;99.90
25914;DHT22;13718;50.922;5.346;2023-12-20T11:30:50;9.20;99.90
25914;DHT22;13718;50.922;5.346;2023-12-20T11:33:16;9.30;99.90
25914;DHT22;13718;50.922;5.346;2023-12-20T11:35:42;9.40;99.90
25914;DHT22;13718;50.922;5.346;2023-12-20T11:38:09;9.40;99.90
25914;DHT22;13718;50.922;5.346;2023-12-20T11:40:35;9.50;99.90
25914;DHT22;13718;50.922;5.346;2023-12-20T11:43:00;9.50;99.90
25914;DHT22;13718;50.922;5.346;2023-12-20T11:45:26;9.50;99.90
25914;DHT22;13718;50.922;5.346;2023-12-20T11:47:52;9.50;99.90
25914;DHT22;13718;50.922;5.346;2023-12-20T11:50:21;9.50;99.90
25914;DHT22;13718;50.922;5.346;2023-12-20T11:52:47;9.40;99.90
25914;DHT22;13718;50.922;5.346;2023-12-20T11:55:13;9.30;99.90
25914;DHT22;13718;50.922;5.346;2023-12-20T11:57:39;9.30;99.90
25914;DHT22;13718;50.922;5.346;2023-12-20T12:00:04;9.30;99.90
25914;DHT22;13718;50.922;5.346;2023-12-20T12:02:31;9.30;99.90
25914;DHT22;13718;50.922;5.346;2023-12-20T12:04:57;9.30;99.90
25914;DHT22;13718;50.922;5.346;2023-12-20T12:07:24;9.20;99.90
25914;DHT22;13718;50.922;5.346;2023-12-20T12:09:49;9.10;99.90
25914;DHT22;13718;50.922;5.346;2023-12-20T12:12:15;9.00;99.90
25914;DHT22;13718;50.922;5.346;2023-12-20T12:14:40;8.80;99.90
25914;DHT22;13718;50.922;5.346;2023-12-20T12:17:12;8.70;99.90
25914;DHT22;13718;50.922;5.346;2023-12-20T12:19:39;8.60;99.90
25914;DHT22;13718;50.922;5.346;2023-12-20T12:22:05;8.50;99.90
25914;DHT22;13718;50.922;5.346;2023-12-20T12:24:35;8.50;99.90
25914;DHT22;13718;50.922;5.346;2023-12-20T12:27:01;8.50;99.90
25914;DHT22;13718;50.922;5.346;2023-12-20T12:29:27;8.40;99.90
25914;DHT22;13718;50.922;5.346;2023-12-20T12:31:52;8.50;99.90
25914;DHT22;13718;50.922;5.346;2023-12-20T12:34:18;8.50;99.90
25914;DHT22;13718;50.922;5.346;2023-12-20T12:36:43;8.50;99.90
25914;DHT22;13718;50.922;5.346;2023-12-20T12:39:12;8.50;99.90
25914;DHT22;13718;50.922;5.346;2023-12-20T12:41:40;8.50;99.90
25914;DHT22;13718;50.922;5.346;2023-12-20T12:44:06;8.60;99.90
25914;DHT22;13718;50.922;5.346;2023-12-20T12:46:31;8.60;99.90
25914;DHT22;13718;50.922;5.346;2023-12-20T12:48:58;8.60;99.90
25914;DHT22;13718;50.922;5.346;2023-12-20T12:51:23;8.60;99.90
25914;DHT22;13718;50.922;5.346;2023-12-20T12:53:49;8.70;99.90
25914;DHT22;13718;50.922;5.346;2023-12-20T12:56:15;8.80;99.90
25914;DHT22;13718;50.922;5.346;2023-12-20T12:58:40;8.80;99.90
25914;DHT22;13718;50.922;5.346;2023-12-20T13:01:06;8.80;99.90
25914;DHT22;13718;50.922;5.346;2023-12-20T13:03:31;8.80;99.90
25914;DHT22;13718;50.922;5.346;2023-12-20T13:05:57;8.70;99.90
25914;DHT22;13718;50.922;5.346;2023-12-20T13:08:22;8.80;99.90
25914;DHT22;13718;50.922;5.346;2023-12-20T13:10:48;8.80;99.90
25914;DHT22;13718;50.922;5.346;2023-12-20T13:13:14;8.90;99.90
25914;DHT22;13718;50.922;5.346;2023-12-20T13:15:40;8.90;99.90
25914;DHT22;13718;50.922;5.346;2023-12-20T13:18:05;8.90;99.90
25914;DHT22;13718;50.922;5.346;2023-12-20T13:20:32;8.90;99.90
25914;DHT22;13718;50.922;5.346;2023-12-20T13:22:58;8.90;99.90
25914;DHT22;13718;50.922;5.346;2023-12-20T13:25:24;8.80;99.90
25914;DHT22;13718;50.922;5.346;2023-12-20T13:27:49;8.90;99.90
25914;DHT22;13718;50.922;5.346;2023-12-20T13:30:18;8.90;99.90
25914;DHT22;13718;50.922;5.346;2023-12-20T13:32:43;8.90;99.90
25914;DHT22;13718;50.922;5.346;2023-12-20T13:35:09;9.00;99.90
25914;DHT22;13718;50.922;5.346;2023-12-20T13:37:34;9.10;99.90
25914;DHT22;13718;50.922;5.346;2023-12-20T13:40:00;9.20;99.90
25914;DHT22;13718;50.922;5.346;2023-12-20T13:42:27;9.20;99.90
25914;DHT22;13718;50.922;5.346;2023-12-20T13:44:53;9.30;99.90
25914;DHT22;13718;50.922;5.346;2023-12-20T13:47:18;9.20;99.90
25914;DHT22;13718;50.922;5.346;2023-12-20T13:49:44;9.10;99.90
25914;DHT22;13718;50.922;5.346;2023-12-20T13:52:10;9.10;99.90
25914;DHT22;13718;50.922;5.346;2023-12-20T13:54:36;9.10;99.90
25914;DHT22;13718;50.922;5.346;2023-12-20T13:57:02;9.10;99.90
25914;DHT22;13718;50.922;5.346;2023-12-20T13:59:28;9.20;99.90
25914;DHT22;13718;50.922;5.346;2023-12-20T14:01:54;9.20;99.90
25914;DHT22;13718;50.922;5.346;2023-12-20T14:04:19;9.30;99.90
25914;DHT22;13718;50.922;5.346;2023-12-20T14:06:45;9.30;99.90
25914;DHT22;13718;50.922;5.346;2023-12-20T14:09:10;9.20;99.90
25914;DHT22;13718;50.922;5.346;2023-12-20T14:11:37;9.20;99.90
25914;DHT22;13718;50.922;5.346;2023-12-20T14:14:09;9.30;99.90
25914;DHT22;13718;50.922;5.346;2023-12-20T14:16:34;9.30;99.90
25914;DHT22;13718;50.922;5.346;2023-12-20T14:19:00;9.20;99.90
25914;DHT22;13718;50.922;5.346;2023-12-20T14:21:28;9.20;99.90
25914;DHT22;13718;50.922;5.346;2023-12-20T14:23:53;9.20;99.90
25914;DHT22;13718;50.922;5.346;2023-12-20T14:26:19;9.20;99.90
25914;DHT22;13718;50.922;5.346;2023-12-20T14:28:44;9.40;99.90
25914;DHT22;13718;50.922;5.346;2023-12-20T14:31:10;9.40;99.90
25914;DHT22;13718;50.922;5.346;2023-12-20T14:33:35;9.50;99.90
25914;DHT22;13718;50.922;5.346;2023-12-20T14:36:01;9.40;99.90
25914;DHT22;13718;50.922;5.346;2023-12-20T14:38:30;9.40;99.90
25914;DHT22;13718;50.922;5.346;2023-12-20T14:40:56;9.40;99.90
25914;DHT22;13718;50.922;5.346;2023-12-20T14:43:22;9.50;99.90
25914;DHT22;13718;50.922;5.346;2023-12-20T14:45:47;9.40;99.90
25914;DHT22;13718;50.922;5.346;2023-12-20T14:48:14;9.40;99.90
25914;DHT22;13718;50.922;5.346;2023-12-20T14:50:39;9.50;99.90
25914;DHT22;13718;50.922;5.346;2023-12-20T14:53:08;9.40;99.90
25914;DHT22;13718;50.922;5.346;2023-12-20T14:55:33;9.30;99.90
25914;DHT22;13718;50.922;5.346;2023-12-20T14:57:59;9.40;99.90
25914;DHT22;13718;50.922;5.346;2023-12-20T15:00:26;9.40;99.90
25914;DHT22;13718;50.922;5.346;2023-12-20T15:02:51;9.40;99.90
25914;DHT22;13718;50.922;5.346;2023-12-20T15:05:17;9.40;99.90
25914;DHT22;13718;50.922;5.346;2023-12-20T15:07:43;9.40;99.90
25914;DHT22;13718;50.922;5.346;2023-12-20T15:10:08;9.40;99.90
25914;DHT22;13718;50.922;5.346;2023-12-20T15:12:34;9.40;99.90
25914;DHT22;13718;50.922;5.346;2023-12-20T15:14:59;9.40;99.90
25914;DHT22;13718;50.922;5.346;2023-12-20T15:17:25;9.50;99.90
25914;DHT22;13718;50.922;5.346;2023-12-20T15:19:52;9.40;99.90
25914;DHT22;13718;50.922;5.346;2023-12-20T15:22:17;9.40;99.90
25914;DHT22;13718;50.922;5.346;2023-12-20T15:24:43;9.40;99.90
25914;DHT22;13718;50.922;5.346;2023-12-20T15:27:10;9.40;99.90
25914;DHT22;13718;50.922;5.346;2023-12-20T15:29:36;9.30;99.90
25914;DHT22;13718;50.922;5.346;2023-12-20T15:32:02;9.30;99.90
25914;DHT22;13718;50.922;5.346;2023-12-20T15:34:29;9.30;99.90
25914;DHT22;13718;50.922;5.346;2023-12-20T15:36:54;9.30;99.90